createdAt,value
2018-04-08T00:00:40.227Z,1012.17
2018-04-08T00:01:40.253Z,1012.19
2018-04-08T00:02:40.204Z,1012.21
2018-04-08T00:03:40.259Z,1012.22
2018-04-08T00:04:40.254Z,1012.22
2018-04-08T00:05:40.216Z,1012.2
2018-04-08T00:06:40.487Z,1012.2
2018-04-08T00:07:40.224Z,1012.2
2018-04-08T00:08:40.233Z,1012.18
2018-04-08T00:09:40.247Z,1012.2
2018-04-08T00:10:40.245Z,1012.21
2018-04-08T00:11:40.260Z,1012.14
2018-04-08T00:12:40.192Z,1012.22
2018-04-08T00:13:40.219Z,1012.19
2018-04-08T00:14:40.185Z,1012.21
2018-04-08T00:15:40.234Z,1012.18
2018-04-08T00:16:40.238Z,1012.17
2018-04-08T00:17:40.248Z,1012.16
2018-04-08T00:18:40.230Z,1012.18
2018-04-08T00:19:40.202Z,1012.18
2018-04-08T00:20:40.228Z,1012.14
2018-04-08T00:21:40.231Z,1012.13
2018-04-08T00:22:40.243Z,1012.09
2018-04-08T00:23:40.259Z,1012.1
2018-04-08T00:24:40.212Z,1012.04
2018-04-08T00:25:40.231Z,1012.1
2018-04-08T00:26:40.223Z,1012.06
2018-04-08T00:27:40.229Z,1012.06
2018-04-08T00:28:40.222Z,1012.02
2018-04-08T00:29:40.219Z,1011.98
2018-04-08T00:30:40.213Z,1012.02
2018-04-08T00:31:40.228Z,1011.97
2018-04-08T00:32:40.230Z,1012.04
2018-04-08T00:33:40.207Z,1011.98
2018-04-08T00:34:40.307Z,1011.98
2018-04-08T00:35:40.334Z,1011.98
2018-04-08T00:36:40.189Z,1011.94
2018-04-08T00:37:40.206Z,1011.93
2018-04-08T00:38:40.223Z,1011.93
2018-04-08T00:39:40.216Z,1011.95
2018-04-08T00:40:40.216Z,1011.97
2018-04-08T00:41:40.174Z,1011.93
2018-04-08T00:42:40.213Z,1011.88
2018-04-08T00:43:40.226Z,1011.89
2018-04-08T00:44:40.235Z,1011.85
2018-04-08T00:45:40.234Z,1011.87
2018-04-08T00:46:40.203Z,1011.86
2018-04-08T00:47:40.217Z,1011.82
2018-04-08T00:48:40.232Z,1011.84
2018-04-08T00:49:40.241Z,1011.82
2018-04-08T00:50:40.346Z,1011.78
2018-04-08T00:51:40.223Z,1011.79
2018-04-08T00:52:40.215Z,1011.77
2018-04-08T00:53:40.186Z,1011.78
2018-04-08T00:54:40.210Z,1011.74
2018-04-08T00:55:40.220Z,1011.75
2018-04-08T00:56:40.233Z,1011.75
2018-04-08T00:57:40.241Z,1011.71
2018-04-08T00:58:40.205Z,1011.71
2018-04-08T00:59:40.238Z,1011.74
2018-04-08T01:00:40.239Z,1011.73
2018-04-08T01:01:40.202Z,1011.71
2018-04-08T01:02:40.176Z,1011.67
2018-04-08T01:03:40.217Z,1011.74
2018-04-08T01:04:40.198Z,1011.69
2018-04-08T01:05:40.226Z,1011.69
2018-04-08T01:06:40.230Z,1011.68
2018-04-08T01:07:40.217Z,1011.71
2018-04-08T01:08:40.222Z,1011.66
2018-04-08T01:09:40.207Z,1011.65
2018-04-08T01:10:40.218Z,1011.67
2018-04-08T01:11:40.210Z,1011.64
2018-04-08T01:12:40.228Z,1011.64
2018-04-08T01:13:40.251Z,1011.61
2018-04-08T01:14:40.214Z,1011.62
2018-04-08T01:15:40.203Z,1011.66
2018-04-08T01:16:40.268Z,1011.67
2018-04-08T01:17:40.233Z,1011.65
2018-04-08T01:18:40.198Z,1011.68
2018-04-08T01:19:40.221Z,1011.69
2018-04-08T01:20:40.224Z,1011.7
2018-04-08T01:21:40.213Z,1011.69
2018-04-08T01:22:40.242Z,1011.69
2018-04-08T01:23:40.205Z,1011.66
2018-04-08T01:24:40.209Z,1011.66
2018-04-08T01:25:40.157Z,1011.64
2018-04-08T01:26:40.257Z,1011.62
2018-04-08T01:27:40.202Z,1011.64
2018-04-08T01:28:40.226Z,1011.59
2018-04-08T01:29:40.224Z,1011.62
2018-04-08T01:30:40.227Z,1011.61
2018-04-08T01:31:40.212Z,1011.61
2018-04-08T01:32:40.196Z,1011.61
2018-04-08T01:33:40.179Z,1011.59
2018-04-08T01:34:40.214Z,1011.58
2018-04-08T01:35:40.211Z,1011.58
2018-04-08T01:36:40.214Z,1011.59
2018-04-08T01:37:40.210Z,1011.58
2018-04-08T01:38:40.202Z,1011.59
2018-04-08T01:39:40.187Z,1011.57
2018-04-08T01:40:40.192Z,1011.58
2018-04-08T01:41:40.205Z,1011.6
2018-04-08T01:42:40.196Z,1011.54
2018-04-08T01:43:40.179Z,1011.56
2018-04-08T01:44:40.203Z,1011.54
2018-04-08T01:45:40.188Z,1011.56
2018-04-08T01:46:40.193Z,1011.53
2018-04-08T01:47:40.206Z,1011.53
2018-04-08T01:48:40.182Z,1011.51
2018-04-08T01:49:40.185Z,1011.54
2018-04-08T01:50:40.221Z,1011.53
2018-04-08T01:51:40.194Z,1011.5
2018-04-08T01:52:40.218Z,1011.51
2018-04-08T01:53:40.155Z,1011.51
2018-04-08T01:54:40.184Z,1011.53
2018-04-08T01:55:40.189Z,1011.47
2018-04-08T01:56:40.201Z,1011.5
2018-04-08T01:57:40.234Z,1011.5
2018-04-08T01:58:40.168Z,1011.48
2018-04-08T01:59:40.167Z,1011.49
2018-04-08T02:00:40.168Z,1011.48
2018-04-08T02:01:40.209Z,1011.46
2018-04-08T02:02:40.190Z,1011.45
2018-04-08T02:03:40.200Z,1011.46
2018-04-08T02:04:40.194Z,1011.51
2018-04-08T02:05:40.152Z,1011.46
2018-04-08T02:06:40.173Z,1011.46
2018-04-08T02:07:40.187Z,1011.5
2018-04-08T02:08:40.196Z,1011.48
2018-04-08T02:09:40.201Z,1011.44
2018-04-08T02:10:40.165Z,1011.47
2018-04-08T02:11:40.163Z,1011.47
2018-04-08T02:12:40.204Z,1011.49
2018-04-08T02:13:40.172Z,1011.45
2018-04-08T02:14:40.182Z,1011.41
2018-04-08T02:15:40.178Z,1011.45
2018-04-08T02:16:40.170Z,1011.44
2018-04-08T02:17:40.207Z,1011.49
2018-04-08T02:18:40.187Z,1011.44
2018-04-08T02:19:40.235Z,1011.48
2018-04-08T02:20:40.205Z,1011.44
2018-04-08T02:21:40.202Z,1011.45
2018-04-08T02:22:40.185Z,1011.48
2018-04-08T02:23:40.201Z,1011.46
2018-04-08T02:24:40.247Z,1011.46
2018-04-08T02:25:40.175Z,1011.49
2018-04-08T02:26:40.157Z,1011.51
2018-04-08T02:27:40.185Z,1011.52
2018-04-08T02:28:40.176Z,1011.51
2018-04-08T02:29:40.187Z,1011.53
2018-04-08T02:30:40.189Z,1011.53
2018-04-08T02:31:40.171Z,1011.52
2018-04-08T02:32:40.175Z,1011.52
2018-04-08T02:33:40.152Z,1011.48
2018-04-08T02:34:40.164Z,1011.51
2018-04-08T02:35:40.281Z,1011.52
2018-04-08T02:36:40.272Z,1011.46
2018-04-08T02:37:40.192Z,1011.48
2018-04-08T02:38:40.165Z,1011.5
2018-04-08T02:39:40.281Z,1011.48
2018-04-08T02:40:40.192Z,1011.44
2018-04-08T02:41:40.193Z,1011.48
2018-04-08T02:42:40.149Z,1011.46
2018-04-08T02:43:40.210Z,1011.44
2018-04-08T02:44:40.157Z,1011.42
2018-04-08T02:45:40.157Z,1011.43
2018-04-08T02:46:40.176Z,1011.4
2018-04-08T02:47:40.203Z,1011.42
2018-04-08T02:48:40.200Z,1011.45
2018-04-08T02:49:40.186Z,1011.42
2018-04-08T02:50:40.185Z,1011.45
2018-04-08T02:51:40.166Z,1011.43
2018-04-08T02:52:40.193Z,1011.45
2018-04-08T02:53:40.182Z,1011.43
2018-04-08T02:54:40.188Z,1011.48
2018-04-08T02:55:40.203Z,1011.48
2018-04-08T02:56:40.166Z,1011.5
2018-04-08T02:57:40.213Z,1011.49
2018-04-08T02:58:40.167Z,1011.49
2018-04-08T02:59:40.151Z,1011.54
2018-04-08T03:00:40.216Z,1011.51
2018-04-08T03:01:40.186Z,1011.45
2018-04-08T03:02:40.172Z,1011.47
2018-04-08T03:03:40.149Z,1011.49
2018-04-08T03:04:40.162Z,1011.49
2018-04-08T03:05:40.209Z,1011.46
2018-04-08T03:06:40.184Z,1011.48
2018-04-08T03:07:40.170Z,1011.48
2018-04-08T03:08:40.186Z,1011.44
2018-04-08T03:09:40.191Z,1011.44
2018-04-08T03:10:40.181Z,1011.47
2018-04-08T03:11:40.227Z,1011.45
2018-04-08T03:12:40.162Z,1011.51
2018-04-08T03:13:40.000Z,1011.47
2018-04-08T03:14:40.132Z,1011.5
2018-04-08T03:15:40.196Z,1011.5
2018-04-08T03:16:40.457Z,1011.5
2018-04-08T03:17:40.179Z,1011.51
2018-04-08T03:18:40.164Z,1011.5
2018-04-08T03:19:40.174Z,1011.48
2018-04-08T03:20:40.182Z,1011.48
2018-04-08T03:21:40.188Z,1011.43
2018-04-08T03:22:40.196Z,1011.46
2018-04-08T03:23:40.165Z,1011.44
2018-04-08T03:24:40.160Z,1011.44
2018-04-08T03:25:40.175Z,1011.41
2018-04-08T03:26:40.180Z,1011.39
2018-04-08T03:27:40.173Z,1011.41
2018-04-08T03:28:40.163Z,1011.38
2018-04-08T03:29:40.168Z,1011.41
2018-04-08T03:30:40.199Z,1011.44
2018-04-08T03:31:40.157Z,1011.39
2018-04-08T03:32:40.162Z,1011.37
2018-04-08T03:33:40.149Z,1011.4
2018-04-08T03:34:40.205Z,1011.32
2018-04-08T03:35:40.163Z,1011.36
2018-04-08T03:36:40.171Z,1011.38
2018-04-08T03:37:40.192Z,1011.29
2018-04-08T03:38:40.274Z,1011.33
2018-04-08T03:39:40.128Z,1011.3
2018-04-08T03:40:40.187Z,1011.31
2018-04-08T03:41:40.168Z,1011.28
2018-04-08T03:42:40.183Z,1011.25
2018-04-08T03:43:40.146Z,1011.29
2018-04-08T03:44:40.186Z,1011.25
2018-04-08T03:45:40.135Z,1011.26
2018-04-08T03:46:40.183Z,1011.23
2018-04-08T03:47:40.166Z,1011.25
2018-04-08T03:48:40.167Z,1011.23
2018-04-08T03:49:40.179Z,1011.21
2018-04-08T03:50:40.169Z,1011.26
2018-04-08T03:51:40.137Z,1011.23
2018-04-08T03:52:40.150Z,1011.28
2018-04-08T03:53:40.146Z,1011.25
2018-04-08T03:54:40.165Z,1011.26
2018-04-08T03:55:40.145Z,1011.25
2018-04-08T03:56:40.161Z,1011.2
2018-04-08T03:57:40.160Z,1011.25
2018-04-08T03:58:40.144Z,1011.24
2018-04-08T03:59:40.132Z,1011.21
2018-04-08T04:00:40.154Z,1011.2
2018-04-08T04:01:40.194Z,1011.18
2018-04-08T04:02:40.198Z,1011.18
2018-04-08T04:03:40.141Z,1011.16
2018-04-08T04:04:40.155Z,1011.16
2018-04-08T04:05:40.136Z,1011.16
2018-04-08T04:06:40.146Z,1011.17
2018-04-08T04:07:40.151Z,1011.14
2018-04-08T04:08:40.156Z,1011.13
2018-04-08T04:09:40.131Z,1011.07
2018-04-08T04:10:40.153Z,1011.14
2018-04-08T04:11:40.173Z,1011.09
2018-04-08T04:12:40.143Z,1011.09
2018-04-08T04:13:40.198Z,1011.09
2018-04-08T04:14:40.154Z,1011.1
2018-04-08T04:15:40.157Z,1011.07
2018-04-08T04:16:40.142Z,1011.08
2018-04-08T04:17:40.127Z,1011.07
2018-04-08T04:18:40.158Z,1011.1
2018-04-08T04:19:40.140Z,1011.03
2018-04-08T04:20:41.588Z,1011.08
2018-04-08T04:21:40.125Z,1011.1
2018-04-08T04:22:40.157Z,1011.14
2018-04-08T04:23:40.174Z,1011.11
2018-04-08T04:24:40.137Z,1011.08
2018-04-08T04:25:40.129Z,1011.09
2018-04-08T04:26:40.179Z,1011.13
2018-04-08T04:27:40.154Z,1011.13
2018-04-08T04:28:40.122Z,1011.14
2018-04-08T04:29:40.139Z,1011.1
2018-04-08T04:30:40.157Z,1011.14
2018-04-08T04:31:40.123Z,1011.13
2018-04-08T04:32:40.140Z,1011.15
2018-04-08T04:33:40.140Z,1011.17
2018-04-08T04:34:40.153Z,1011.18
2018-04-08T04:35:40.144Z,1011.16
2018-04-08T04:36:40.244Z,1011.17
2018-04-08T04:37:40.336Z,1011.21
2018-04-08T04:38:40.151Z,1011.18
2018-04-08T04:39:40.151Z,1011.22
2018-04-08T04:40:40.137Z,1011.21
2018-04-08T04:41:40.171Z,1011.23
2018-04-08T04:42:40.192Z,1011.24
2018-04-08T04:43:40.144Z,1011.27
2018-04-08T04:44:40.168Z,1011.3
2018-04-08T04:45:40.234Z,1011.26
2018-04-08T04:46:40.154Z,1011.28
2018-04-08T04:47:40.164Z,1011.33
2018-04-08T04:48:40.137Z,1011.29
2018-04-08T04:49:40.143Z,1011.3
2018-04-08T04:50:40.113Z,1011.3
2018-04-08T04:51:40.194Z,1011.33
2018-04-08T04:52:40.146Z,1011.33
2018-04-08T04:53:40.118Z,1011.31
2018-04-08T04:54:40.137Z,1011.32
2018-04-08T04:55:40.120Z,1011.32
2018-04-08T04:56:40.137Z,1011.29
2018-04-08T04:57:40.112Z,1011.27
2018-04-08T04:58:40.145Z,1011.26
2018-04-08T04:59:40.198Z,1011.25
2018-04-08T05:00:40.145Z,1011.26
2018-04-08T05:01:40.157Z,1011.23
2018-04-08T05:02:40.133Z,1011.2
2018-04-08T05:03:40.241Z,1011.2
2018-04-08T05:04:40.115Z,1011.2
2018-04-08T05:05:40.128Z,1011.22
2018-04-08T05:06:40.132Z,1011.25
2018-04-08T05:07:40.147Z,1011.26
2018-04-08T05:08:40.156Z,1011.26
2018-04-08T05:09:40.177Z,1011.26
2018-04-08T05:10:40.139Z,1011.27
2018-04-08T05:11:40.128Z,1011.28
2018-04-08T05:12:40.149Z,1011.23
2018-04-08T05:13:40.200Z,1011.26
2018-04-08T05:14:40.111Z,1011.3
2018-04-08T05:15:40.120Z,1011.29
2018-04-08T05:16:40.144Z,1011.28
2018-04-08T05:17:40.118Z,1011.29
2018-04-08T05:18:40.124Z,1011.29
2018-04-08T05:19:40.129Z,1011.29
2018-04-08T05:20:40.156Z,1011.29
2018-04-08T05:21:40.118Z,1011.27
2018-04-08T05:22:40.127Z,1011.28
2018-04-08T05:23:40.116Z,1011.32
2018-04-08T05:24:40.130Z,1011.32
2018-04-08T05:25:40.135Z,1011.33
2018-04-08T05:26:40.106Z,1011.31
2018-04-08T05:27:40.128Z,1011.32
2018-04-08T05:28:40.154Z,1011.36
2018-04-08T05:29:40.171Z,1011.35
2018-04-08T05:30:40.156Z,1011.37
2018-04-08T05:31:40.129Z,1011.39
2018-04-08T05:32:40.106Z,1011.4
2018-04-08T05:33:40.134Z,1011.41
2018-04-08T05:34:40.130Z,1011.44
2018-04-08T05:35:40.109Z,1011.46
2018-04-08T05:36:40.097Z,1011.49
2018-04-08T05:37:40.157Z,1011.52
2018-04-08T05:38:40.100Z,1011.47
2018-04-08T05:39:40.137Z,1011.48
2018-04-08T05:40:40.152Z,1011.51
2018-04-08T05:41:40.148Z,1011.51
2018-04-08T05:42:40.115Z,1011.52
2018-04-08T05:43:40.136Z,1011.48
2018-04-08T05:44:40.144Z,1011.51
2018-04-08T05:45:40.130Z,1011.5
2018-04-08T05:46:40.141Z,1011.5
2018-04-08T05:47:40.147Z,1011.53
2018-04-08T05:48:40.141Z,1011.57
2018-04-08T05:49:40.129Z,1011.58
2018-04-08T05:50:40.128Z,1011.57
2018-04-08T05:51:40.135Z,1011.57
2018-04-08T05:52:40.132Z,1011.58
2018-04-08T05:53:40.118Z,1011.59
2018-04-08T05:54:40.080Z,1011.59
2018-04-08T05:55:40.099Z,1011.6
2018-04-08T05:56:40.114Z,1011.56
2018-04-08T05:57:40.094Z,1011.53
2018-04-08T05:58:40.115Z,1011.55
2018-04-08T05:59:40.097Z,1011.52
2018-04-08T06:00:40.120Z,1011.55
2018-04-08T06:01:40.091Z,1011.54
2018-04-08T06:02:40.122Z,1011.52
2018-04-08T06:03:40.125Z,1011.52
2018-04-08T06:04:40.131Z,1011.54
2018-04-08T06:05:40.138Z,1011.55
2018-04-08T06:06:40.128Z,1011.54
2018-04-08T06:07:40.163Z,1011.49
2018-04-08T06:08:40.087Z,1011.52
2018-04-08T06:09:40.103Z,1011.49
2018-04-08T06:10:40.157Z,1011.49
2018-04-08T06:11:40.116Z,1011.5
2018-04-08T06:12:40.105Z,1011.47
2018-04-08T06:13:40.149Z,1011.44
2018-04-08T06:14:40.110Z,1011.45
2018-04-08T06:15:40.441Z,1011.49
2018-04-08T06:16:40.096Z,1011.49
2018-04-08T06:17:40.319Z,1011.47
2018-04-08T06:18:40.103Z,1011.45
2018-04-08T06:19:40.111Z,1011.45
2018-04-08T06:20:40.131Z,1011.48
2018-04-08T06:21:40.159Z,1011.49
2018-04-08T06:22:40.080Z,1011.55
2018-04-08T06:23:40.080Z,1011.48
2018-04-08T06:24:40.109Z,1011.49
2018-04-08T06:25:40.135Z,1011.56
2018-04-08T06:26:40.081Z,1011.49
2018-04-08T06:27:40.122Z,1011.58
2018-04-08T06:28:40.119Z,1011.57
2018-04-08T06:29:40.076Z,1011.57
2018-04-08T06:30:40.153Z,1011.6
2018-04-08T06:31:40.126Z,1011.57
2018-04-08T06:32:40.093Z,1011.58
2018-04-08T06:33:40.199Z,1011.58
2018-04-08T06:34:40.142Z,1011.67
2018-04-08T06:35:40.091Z,1011.64
2018-04-08T06:36:40.105Z,1011.63
2018-04-08T06:37:40.210Z,1011.71
2018-04-08T06:38:40.171Z,1011.64
2018-04-08T06:39:40.100Z,1011.62
2018-04-08T06:40:40.105Z,1011.68
2018-04-08T06:41:40.058Z,1011.65
2018-04-08T06:42:40.097Z,1011.63
2018-04-08T06:43:40.104Z,1011.68
2018-04-08T06:44:40.111Z,1011.61
2018-04-08T06:45:40.121Z,1011.64
2018-04-08T06:46:40.108Z,1011.65
2018-04-08T06:47:40.109Z,1011.68
2018-04-08T06:48:40.110Z,1011.63
2018-04-08T06:49:40.110Z,1011.71
2018-04-08T06:50:40.120Z,1011.64
2018-04-08T06:51:40.127Z,1011.64
2018-04-08T06:52:40.095Z,1011.62
2018-04-08T06:53:40.114Z,1011.64
2018-04-08T06:54:40.099Z,1011.6
2018-04-08T06:55:40.313Z,1011.63
2018-04-08T06:56:40.101Z,1011.61
2018-04-08T06:57:40.111Z,1011.63
2018-04-08T06:58:40.107Z,1011.6
2018-04-08T06:59:40.108Z,1011.61
2018-04-08T07:00:40.142Z,1011.61
2018-04-08T07:01:40.087Z,1011.6
2018-04-08T07:02:40.108Z,1011.63
2018-04-08T07:03:40.126Z,1011.63
2018-04-08T07:04:40.103Z,1011.57
2018-04-08T07:05:40.124Z,1011.58
2018-04-08T07:06:40.082Z,1011.6
2018-04-08T07:07:40.113Z,1011.63
2018-04-08T07:08:40.123Z,1011.58
2018-04-08T07:09:40.069Z,1011.6
2018-04-08T07:10:40.111Z,1011.64
2018-04-08T07:11:40.081Z,1011.67
2018-04-08T07:12:40.114Z,1011.69
2018-04-08T07:13:40.091Z,1011.65
2018-04-08T07:14:40.102Z,1011.7
2018-04-08T07:15:40.081Z,1011.71
2018-04-08T07:16:40.119Z,1011.74
2018-04-08T07:17:40.111Z,1011.71
2018-04-08T07:18:40.103Z,1011.64
2018-04-08T07:19:40.067Z,1011.65
2018-04-08T07:20:40.082Z,1011.71
2018-04-08T07:21:40.186Z,1011.62
2018-04-08T07:22:40.080Z,1011.67
2018-04-08T07:23:40.098Z,1011.63
2018-04-08T07:24:40.373Z,1011.61
2018-04-08T07:25:40.088Z,1011.59
2018-04-08T07:26:40.164Z,1011.61
2018-04-08T07:27:40.128Z,1011.59
2018-04-08T07:28:40.110Z,1011.57
2018-04-08T07:29:40.142Z,1011.53
2018-04-08T07:30:40.147Z,1011.56
2018-04-08T07:31:40.062Z,1011.56
2018-04-08T07:32:40.236Z,1011.54
2018-04-08T07:33:40.105Z,1011.55
2018-04-08T07:34:40.088Z,1011.54
2018-04-08T07:35:40.069Z,1011.55
2018-04-08T07:36:40.150Z,1011.55
2018-04-08T07:37:40.098Z,1011.55
2018-04-08T07:38:40.076Z,1011.58
2018-04-08T07:39:40.090Z,1011.61
2018-04-08T07:40:40.078Z,1011.58
2018-04-08T07:41:40.147Z,1011.64
2018-04-08T07:42:40.086Z,1011.62
2018-04-08T07:43:40.091Z,1011.65
2018-04-08T07:44:40.377Z,1011.67
2018-04-08T07:45:40.037Z,1011.63
2018-04-08T07:46:40.049Z,1011.62
2018-04-08T07:47:40.110Z,1011.64
2018-04-08T07:48:40.080Z,1011.59
2018-04-08T07:49:40.097Z,1011.58
2018-04-08T07:50:40.068Z,1011.6
2018-04-08T07:51:40.089Z,1011.59
2018-04-08T07:52:40.101Z,1011.6
2018-04-08T07:53:40.089Z,1011.61
2018-04-08T07:54:40.124Z,1011.57
2018-04-08T07:55:40.101Z,1011.55
2018-04-08T07:56:40.080Z,1011.61
2018-04-08T07:57:40.072Z,1011.63
2018-04-08T07:58:40.082Z,1011.58
2018-04-08T07:59:40.081Z,1011.58
2018-04-08T08:00:40.081Z,1011.57
2018-04-08T08:01:40.183Z,1011.59
2018-04-08T08:02:40.092Z,1011.54
2018-04-08T08:03:39.954Z,1011.58
2018-04-08T08:04:40.067Z,1011.54
2018-04-08T08:05:40.154Z,1011.56
2018-04-08T08:06:40.080Z,1011.55
2018-04-08T08:07:40.103Z,1011.57
2018-04-08T08:08:40.080Z,1011.57
2018-04-08T08:09:40.081Z,1011.55
2018-04-08T08:10:40.375Z,1011.55
2018-04-08T08:11:40.066Z,1011.55
2018-04-08T08:12:40.098Z,1011.51
2018-04-08T08:13:40.073Z,1011.53
2018-04-08T08:14:40.102Z,1011.56
2018-04-08T08:15:40.074Z,1011.58
2018-04-08T08:16:40.069Z,1011.58
2018-04-08T08:17:40.075Z,1011.52
2018-04-08T08:18:40.113Z,1011.53
2018-04-08T08:19:40.082Z,1011.5
2018-04-08T08:20:40.101Z,1011.53
2018-04-08T08:21:40.067Z,1011.52
2018-04-08T08:22:40.112Z,1011.5
2018-04-08T08:23:40.210Z,1011.52
2018-04-08T08:24:40.078Z,1011.54
2018-04-08T08:25:40.069Z,1011.49
2018-04-08T08:26:40.050Z,1011.48
2018-04-08T08:27:40.064Z,1011.51
2018-04-08T08:28:40.063Z,1011.48
2018-04-08T08:29:40.064Z,1011.48
2018-04-08T08:30:40.155Z,1011.5
2018-04-08T08:31:40.063Z,1011.46
2018-04-08T08:32:40.072Z,1011.49
2018-04-08T08:33:40.093Z,1011.47
2018-04-08T08:34:40.066Z,1011.5
2018-04-08T08:35:40.075Z,1011.47
2018-04-08T08:36:40.078Z,1011.51
2018-04-08T08:37:40.053Z,1011.48
2018-04-08T08:38:40.214Z,1011.48
2018-04-08T08:39:40.172Z,1011.46
2018-04-08T08:40:40.046Z,1011.47
2018-04-08T08:41:40.178Z,1011.48
2018-04-08T08:42:40.132Z,1011.48
2018-04-08T08:43:40.183Z,1011.52
2018-04-08T08:44:40.094Z,1011.48
2018-04-08T08:45:40.062Z,1011.5
2018-04-08T08:46:40.348Z,1011.44
2018-04-08T08:47:40.056Z,1011.45
2018-04-08T08:48:40.086Z,1011.47
2018-04-08T08:49:40.111Z,1011.49
2018-04-08T08:50:40.043Z,1011.42
2018-04-08T08:51:40.106Z,1011.45
2018-04-08T08:52:40.075Z,1011.43
2018-04-08T08:53:40.086Z,1011.42
2018-04-08T08:54:40.049Z,1011.42
2018-04-08T08:55:40.078Z,1011.4
2018-04-08T08:56:40.074Z,1011.39
2018-04-08T08:57:40.055Z,1011.4
2018-04-08T08:58:40.071Z,1011.4
2018-04-08T08:59:40.072Z,1011.38
2018-04-08T09:00:40.074Z,1011.42
2018-04-08T09:01:40.075Z,1011.41
2018-04-08T09:02:40.067Z,1011.43
2018-04-08T09:03:40.052Z,1011.41
2018-04-08T09:04:40.053Z,1011.4
2018-04-08T09:05:40.056Z,1011.41
2018-04-08T09:06:40.379Z,1011.37
2018-04-08T09:07:40.067Z,1011.39
2018-04-08T09:08:40.073Z,1011.42
2018-04-08T09:09:40.051Z,1011.36
2018-04-08T09:10:40.058Z,1011.37
2018-04-08T09:11:40.070Z,1011.35
2018-04-08T09:12:40.048Z,1011.35
2018-04-08T09:13:40.055Z,1011.35
2018-04-08T09:14:40.055Z,1011.31
2018-04-08T09:15:40.037Z,1011.32
2018-04-08T09:16:40.094Z,1011.27
2018-04-08T09:17:40.066Z,1011.26
2018-04-08T09:18:40.062Z,1011.24
2018-04-08T09:19:40.077Z,1011.28
2018-04-08T09:20:40.077Z,1011.26
2018-04-08T09:21:40.103Z,1011.29
2018-04-08T09:22:40.066Z,1011.33
2018-04-08T09:23:40.053Z,1011.33
2018-04-08T09:24:40.100Z,1011.35
2018-04-08T09:25:40.048Z,1011.31
2018-04-08T09:26:40.104Z,1011.32
2018-04-08T09:27:40.049Z,1011.29
2018-04-08T09:28:40.025Z,1011.27
2018-04-08T09:29:40.226Z,1011.23
2018-04-08T09:30:40.121Z,1011.26
2018-04-08T09:31:40.044Z,1011.27
2018-04-08T09:32:40.025Z,1011.28
2018-04-08T09:33:40.032Z,1011.24
2018-04-08T09:34:40.077Z,1011.26
2018-04-08T09:35:40.070Z,1011.22
2018-04-08T09:36:40.056Z,1011.26
2018-04-08T09:37:40.041Z,1011.25
2018-04-08T09:38:40.055Z,1011.27
2018-04-08T09:39:40.071Z,1011.26
2018-04-08T09:40:40.034Z,1011.24
2018-04-08T09:41:40.049Z,1011.26
2018-04-08T09:42:40.077Z,1011.24
2018-04-08T09:43:40.065Z,1011.19
2018-04-08T09:44:40.043Z,1011.23
2018-04-08T09:45:40.258Z,1011.2
2018-04-08T09:46:40.033Z,1011.13
2018-04-08T09:47:40.042Z,1011.18
2018-04-08T09:48:40.068Z,1011.15
2018-04-08T09:49:40.047Z,1011.13
2018-04-08T09:50:40.104Z,1011.16
2018-04-08T09:51:40.099Z,1011.14
2018-04-08T09:52:40.061Z,1011.12
2018-04-08T09:53:40.014Z,1011.11
2018-04-08T09:54:40.078Z,1011.1
2018-04-08T09:55:40.043Z,1011.08
2018-04-08T09:56:40.050Z,1011.06
2018-04-08T09:57:40.060Z,1011.07
2018-04-08T09:58:40.033Z,1011.04
2018-04-08T09:59:40.029Z,1011.11
2018-04-08T10:00:40.033Z,1011.07
2018-04-08T10:01:40.038Z,1011.03
2018-04-08T10:02:40.044Z,1011.03
2018-04-08T10:03:40.114Z,1011.01
2018-04-08T10:04:40.034Z,1011.03
2018-04-08T10:05:40.350Z,1011.02
2018-04-08T10:06:40.052Z,1011
2018-04-08T10:07:40.067Z,1011.01
2018-04-08T10:08:40.043Z,1010.98
2018-04-08T10:09:40.025Z,1010.96
2018-04-08T10:10:22.237Z,1010.97
2018-04-08T10:11:22.196Z,1010.92
2018-04-08T10:12:22.094Z,1010.92
2018-04-08T10:13:22.046Z,1010.92
2018-04-08T10:14:22.031Z,1010.89
2018-04-08T10:15:22.180Z,1010.91
2018-04-08T10:16:15.626Z,1010.88
2018-04-08T10:17:15.707Z,1010.91
2018-04-08T10:18:15.577Z,1010.93
2018-04-08T10:19:15.632Z,1010.91
2018-04-08T10:20:15.570Z,1010.88
2018-04-08T10:21:15.409Z,1010.92
2018-04-08T10:22:00.625Z,1010.9
2018-04-08T10:23:00.945Z,1010.88
2018-04-08T10:24:00.576Z,1010.88
2018-04-08T10:25:00.522Z,1010.85
2018-04-08T10:26:00.528Z,1010.86
2018-04-08T10:27:00.600Z,1010.87
2018-04-08T10:28:00.595Z,1010.83
2018-04-08T10:29:00.683Z,1010.83
2018-04-08T10:30:00.547Z,1010.82
2018-04-08T10:31:00.609Z,1010.79
2018-04-08T10:32:00.672Z,1010.77
2018-04-08T10:33:00.433Z,1010.72
2018-04-08T10:34:00.595Z,1010.75
2018-04-08T10:35:00.464Z,1010.73
2018-04-08T10:36:00.682Z,1010.72
2018-04-08T10:37:00.831Z,1010.67
2018-04-08T10:38:00.640Z,1010.61
2018-04-08T10:39:00.733Z,1010.64
2018-04-08T10:40:00.457Z,1010.64
2018-04-08T10:41:00.540Z,1010.59
2018-04-08T10:42:00.531Z,1010.63
2018-04-08T10:43:00.811Z,1010.63
2018-04-08T10:44:00.645Z,1010.62
2018-04-08T10:45:00.676Z,1010.6
2018-04-08T10:46:00.623Z,1010.66
2018-04-08T10:47:01.057Z,1010.63
2018-04-08T10:48:00.793Z,1010.64
2018-04-08T10:49:00.606Z,1010.62
2018-04-08T10:50:00.414Z,1010.6
2018-04-08T10:51:00.639Z,1010.55
2018-04-08T10:52:00.529Z,1010.54
2018-04-08T10:53:00.469Z,1010.53
2018-04-08T10:54:00.730Z,1010.51
2018-04-08T10:55:00.465Z,1010.54
2018-04-08T10:56:00.602Z,1010.54
2018-04-08T10:57:00.462Z,1010.5
2018-04-08T10:58:00.486Z,1010.45
2018-04-08T10:59:12.636Z,1010.46
2018-04-08T11:00:12.424Z,1010.42
2018-04-08T11:01:12.543Z,1010.41
2018-04-08T11:02:12.456Z,1010.38
2018-04-08T11:03:12.605Z,1010.38
2018-04-08T11:04:12.605Z,1010.36
2018-04-08T11:05:12.494Z,1010.34
2018-04-08T11:06:12.400Z,1010.33
2018-04-08T11:07:12.840Z,1010.28
2018-04-08T11:08:12.567Z,1010.28
2018-04-08T11:09:12.586Z,1010.23
2018-04-08T11:10:12.624Z,1010.28
2018-04-08T11:11:12.637Z,1010.28
2018-04-08T11:12:12.667Z,1010.25
2018-04-08T11:13:12.651Z,1010.26
2018-04-08T11:14:12.632Z,1010.21
2018-04-08T11:15:12.497Z,1010.21
2018-04-08T11:16:12.649Z,1010.2
2018-04-08T11:17:12.480Z,1010.16
2018-04-08T11:18:12.502Z,1010.19
2018-04-08T11:19:12.736Z,1010.18
2018-04-08T11:20:13.078Z,1010.14
2018-04-08T11:21:12.546Z,1010.13
2018-04-08T11:22:12.764Z,1010.13
2018-04-08T11:23:12.557Z,1010.11
2018-04-08T11:24:12.647Z,1010.07
2018-04-08T11:25:12.483Z,1010.07
2018-04-08T11:26:12.507Z,1010.06
2018-04-08T11:27:12.480Z,1010.03
2018-04-08T11:28:12.549Z,1009.97
2018-04-08T11:29:12.430Z,1010
2018-04-08T11:30:12.752Z,1009.96
2018-04-08T11:31:12.694Z,1009.91
2018-04-08T11:32:12.562Z,1009.96
2018-04-08T11:33:12.735Z,1009.92
2018-04-08T11:34:12.548Z,1009.89
2018-04-08T11:35:12.618Z,1009.88
2018-04-08T11:36:12.453Z,1009.85
2018-04-08T11:37:12.638Z,1009.87
2018-04-08T11:38:12.614Z,1009.88
2018-04-08T11:39:12.632Z,1009.88
2018-04-08T11:40:12.768Z,1009.91
2018-04-08T11:41:12.637Z,1009.87
2018-04-08T11:42:12.472Z,1009.85
2018-04-08T11:43:12.495Z,1009.88
2018-04-08T11:44:12.487Z,1009.86
2018-04-08T11:45:12.833Z,1009.87
2018-04-08T11:46:12.692Z,1009.89
2018-04-08T11:47:12.721Z,1009.87
2018-04-08T11:48:12.521Z,1009.87
2018-04-08T11:49:12.535Z,1009.88
2018-04-08T11:50:12.421Z,1009.89
2018-04-08T11:51:12.473Z,1009.87
2018-04-08T11:52:12.596Z,1009.82
2018-04-08T11:53:12.424Z,1009.85
2018-04-08T11:54:12.572Z,1009.82
2018-04-08T11:55:12.432Z,1009.81
2018-04-08T11:56:12.432Z,1009.81
2018-04-08T11:57:12.421Z,1009.72
2018-04-08T11:58:12.846Z,1009.75
2018-04-08T11:59:12.436Z,1009.68
2018-04-08T12:00:12.630Z,1009.66
2018-04-08T12:01:12.507Z,1009.7
2018-04-08T12:02:12.587Z,1009.68
2018-04-08T12:03:12.430Z,1009.67
2018-04-08T12:04:12.416Z,1009.61
2018-04-08T12:05:12.444Z,1009.59
2018-04-08T12:06:12.573Z,1009.58
2018-04-08T12:07:12.571Z,1009.65